createdAt,value
2017-05-31T00:00:46.221Z,1030.2
2017-05-31T00:01:46.220Z,1030.25
2017-05-31T00:02:46.219Z,1030.3
2017-05-31T00:03:46.218Z,1030.34
2017-05-31T00:04:46.216Z,1030.33
2017-05-31T00:05:46.214Z,1030.31
2017-05-31T00:06:46.213Z,1030.29
2017-05-31T00:07:46.209Z,1030.29
2017-05-31T00:08:46.211Z,1030.33
2017-05-31T00:09:46.208Z,1030.36
2017-05-31T00:10:46.207Z,1030.43
2017-05-31T00:11:46.206Z,1030.42
2017-05-31T00:12:46.203Z,1030.46
2017-05-31T00:13:46.201Z,1030.51
2017-05-31T00:14:46.200Z,1030.48
2017-05-31T00:15:46.198Z,1030.51
2017-05-31T00:16:46.196Z,1030.51
2017-05-31T00:17:46.195Z,1030.5
2017-05-31T00:18:46.192Z,1030.54
2017-05-31T00:19:46.192Z,1030.52
2017-05-31T00:20:46.190Z,1030.52
2017-05-31T00:21:46.188Z,1030.49
2017-05-31T00:22:46.248Z,1030.52
2017-05-31T00:23:46.185Z,1030.51
2017-05-31T00:24:46.184Z,1030.52
2017-05-31T00:25:46.182Z,1030.49
2017-05-31T00:26:46.179Z,1030.49
2017-05-31T00:27:46.178Z,1030.49
2017-05-31T00:28:46.176Z,1030.44
2017-05-31T00:29:46.173Z,1030.45
2017-05-31T00:30:46.173Z,1030.43
2017-05-31T00:31:46.171Z,1030.39
2017-05-31T00:32:46.170Z,1030.34
2017-05-31T00:33:46.168Z,1030.38
2017-05-31T00:34:46.166Z,1030.37
2017-05-31T00:35:46.165Z,1030.39
2017-05-31T00:36:46.164Z,1030.41
2017-05-31T00:37:46.160Z,1030.38
2017-05-31T00:38:46.159Z,1030.41
2017-05-31T00:39:46.158Z,1030.4
2017-05-31T00:40:46.155Z,1030.39
2017-05-31T00:41:46.153Z,1030.36
2017-05-31T00:42:46.153Z,1030.41
2017-05-31T00:43:46.151Z,1030.41
2017-05-31T00:44:46.148Z,1030.43
2017-05-31T00:45:46.147Z,1030.46
2017-05-31T00:46:46.146Z,1030.45
2017-05-31T00:47:46.144Z,1030.44
2017-05-31T00:48:46.142Z,1030.49
2017-05-31T00:49:46.140Z,1030.53
2017-05-31T00:50:46.139Z,1030.48
2017-05-31T00:51:46.136Z,1030.56
2017-05-31T00:52:46.135Z,1030.56
2017-05-31T00:53:46.134Z,1030.54
2017-05-31T00:54:46.132Z,1030.58
2017-05-31T00:55:46.130Z,1030.6
2017-05-31T00:56:46.128Z,1030.56
2017-05-31T00:57:46.127Z,1030.58
2017-05-31T00:58:46.128Z,1030.56
2017-05-31T00:59:46.125Z,1030.53
2017-05-31T01:00:46.121Z,1030.54
2017-05-31T01:01:46.120Z,1030.55
2017-05-31T01:02:46.117Z,1030.55
2017-05-31T01:03:46.116Z,1030.6
2017-05-31T01:04:46.116Z,1030.57
2017-05-31T01:05:46.115Z,1030.59
2017-05-31T01:06:46.111Z,1030.65
2017-05-31T01:07:46.109Z,1030.6
2017-05-31T01:08:46.107Z,1030.56
2017-05-31T01:09:46.106Z,1030.57
2017-05-31T01:10:46.104Z,1030.59
2017-05-31T01:11:46.102Z,1030.63
2017-05-31T01:12:46.102Z,1030.6
2017-05-31T01:13:46.098Z,1030.6
2017-05-31T01:14:46.097Z,1030.59
2017-05-31T01:15:46.096Z,1030.61
2017-05-31T01:16:46.094Z,1030.52
2017-05-31T01:17:46.091Z,1030.52
2017-05-31T01:18:46.091Z,1030.54
2017-05-31T01:19:46.088Z,1030.56
2017-05-31T01:20:46.089Z,1030.53
2017-05-31T01:21:46.086Z,1030.52
2017-05-31T01:22:46.085Z,1030.59
2017-05-31T01:23:46.082Z,1030.59
2017-05-31T01:24:46.080Z,1030.67
2017-05-31T01:25:46.079Z,1030.65
2017-05-31T01:26:46.077Z,1030.68
2017-05-31T01:27:46.077Z,1030.62
2017-05-31T01:28:46.073Z,1030.6
2017-05-31T01:29:46.071Z,1030.58
2017-05-31T01:30:46.069Z,1030.56
2017-05-31T01:31:46.067Z,1030.63
2017-05-31T01:32:46.066Z,1030.65
2017-05-31T01:33:46.064Z,1030.7
2017-05-31T01:34:46.063Z,1030.69
2017-05-31T01:35:46.060Z,1030.71
2017-05-31T01:36:46.059Z,1030.77
2017-05-31T01:37:46.058Z,1030.79
2017-05-31T01:38:46.056Z,1030.81
2017-05-31T01:39:46.054Z,1030.89
2017-05-31T01:40:46.052Z,1030.9
2017-05-31T01:41:46.050Z,1030.92
2017-05-31T01:42:46.048Z,1031
2017-05-31T01:43:46.047Z,1031.06
2017-05-31T01:44:46.045Z,1031.12
2017-05-31T01:45:46.043Z,1031.16
2017-05-31T01:46:46.041Z,1031.16
2017-05-31T01:47:46.038Z,1031.21
2017-05-31T01:48:46.037Z,1031.24
2017-05-31T01:49:46.035Z,1031.22
2017-05-31T01:50:46.033Z,1031.26
2017-05-31T01:51:46.031Z,1031.31
2017-05-31T01:52:46.028Z,1031.33
2017-05-31T01:53:46.026Z,1031.33
2017-05-31T01:54:46.025Z,1031.41
2017-05-31T01:55:46.023Z,1031.45
2017-05-31T01:56:46.021Z,1031.48
2017-05-31T01:57:46.018Z,1031.5
2017-05-31T01:58:46.016Z,1031.52
2017-05-31T01:59:46.014Z,1031.52
2017-05-31T02:00:46.012Z,1031.57
2017-05-31T02:01:46.009Z,1031.63
2017-05-31T02:02:46.007Z,1031.66
2017-05-31T02:03:46.005Z,1031.63
2017-05-31T02:04:46.002Z,1031.66
2017-05-31T02:05:46.001Z,1031.66
2017-05-31T02:06:45.998Z,1031.75
2017-05-31T02:07:45.996Z,1031.75
2017-05-31T02:08:45.993Z,1031.81
2017-05-31T02:09:45.991Z,1031.9
2017-05-31T02:10:45.989Z,1031.92
2017-05-31T02:11:45.987Z,1031.95
2017-05-31T02:12:45.983Z,1031.94
2017-05-31T02:13:45.981Z,1031.91
2017-05-31T02:14:45.979Z,1031.94
2017-05-31T02:15:45.976Z,1031.93
2017-05-31T02:16:45.972Z,1031.94
2017-05-31T02:17:45.971Z,1031.99
2017-05-31T02:18:45.968Z,1032
2017-05-31T02:19:45.965Z,1032
2017-05-31T02:20:45.962Z,1031.98
2017-05-31T02:21:45.961Z,1031.95
2017-05-31T02:22:45.957Z,1031.94
2017-05-31T02:23:45.954Z,1031.9
2017-05-31T02:24:45.952Z,1031.91
2017-05-31T02:25:45.949Z,1031.93
2017-05-31T02:26:45.946Z,1031.92
2017-05-31T02:27:45.942Z,1031.98
2017-05-31T02:28:45.941Z,1032.02
2017-05-31T02:29:45.938Z,1032.1
2017-05-31T02:30:45.934Z,1032.08
2017-05-31T02:31:45.932Z,1032.11
2017-05-31T02:32:45.930Z,1032.06
2017-05-31T02:33:45.927Z,1032.19
2017-05-31T02:34:45.923Z,1032.24
2017-05-31T02:35:45.920Z,1032.29
2017-05-31T02:36:45.917Z,1032.33
2017-05-31T02:37:45.914Z,1032.27
2017-05-31T02:38:45.912Z,1032.31
2017-05-31T02:39:45.910Z,1032.33
2017-05-31T02:40:45.907Z,1032.29
2017-05-31T02:41:45.903Z,1032.26
2017-05-31T02:42:45.901Z,1032.21
2017-05-31T02:43:45.897Z,1032.18
2017-05-31T02:44:45.895Z,1032.19
2017-05-31T02:45:45.891Z,1032.13
2017-05-31T02:46:45.888Z,1032.1
2017-05-31T02:47:45.886Z,1032.15
2017-05-31T02:48:45.881Z,1032.11
2017-05-31T02:49:45.878Z,1032.19
2017-05-31T02:50:45.876Z,1032.26
2017-05-31T02:51:45.873Z,1032.3
2017-05-31T02:52:45.869Z,1032.36
2017-05-31T02:53:45.866Z,1032.36
2017-05-31T02:54:45.863Z,1032.34
2017-05-31T02:55:45.861Z,1032.33
2017-05-31T02:56:45.857Z,1032.35
2017-05-31T02:57:45.855Z,1032.31
2017-05-31T02:58:45.852Z,1032.27
2017-05-31T02:59:45.850Z,1032.3
2017-05-31T03:00:45.846Z,1032.33
2017-05-31T03:01:45.844Z,1032.25
2017-05-31T03:02:45.840Z,1032.24
2017-05-31T03:03:45.835Z,1032.18
2017-05-31T03:04:45.833Z,1032.22
2017-05-31T03:05:45.831Z,1032.2
2017-05-31T03:06:45.827Z,1032.19
2017-05-31T03:07:45.824Z,1032.29
2017-05-31T03:08:45.821Z,1032.34
2017-05-31T03:09:45.818Z,1032.31
2017-05-31T03:10:45.814Z,1032.34
2017-05-31T03:11:45.811Z,1032.36
2017-05-31T03:12:45.808Z,1032.4
2017-05-31T03:13:45.806Z,1032.42
2017-05-31T03:14:45.802Z,1032.43
2017-05-31T03:15:45.799Z,1032.45
2017-05-31T03:16:45.797Z,1032.44
2017-05-31T03:17:45.792Z,1032.44
2017-05-31T03:18:45.790Z,1032.4
2017-05-31T03:19:45.786Z,1032.43
2017-05-31T03:20:45.784Z,1032.44
2017-05-31T03:21:45.780Z,1032.41
2017-05-31T03:22:45.777Z,1032.43
2017-05-31T03:23:45.774Z,1032.4
2017-05-31T03:24:45.772Z,1032.41
2017-05-31T03:25:45.768Z,1032.37
2017-05-31T03:26:45.765Z,1032.41
2017-05-31T03:27:45.762Z,1032.37
2017-05-31T03:28:45.757Z,1032.39
2017-05-31T03:29:45.755Z,1032.29
2017-05-31T03:30:45.753Z,1032.27
2017-05-31T03:31:45.751Z,1032.28
2017-05-31T03:32:45.746Z,1032.2
2017-05-31T03:33:45.743Z,1032.27
2017-05-31T03:34:45.740Z,1032.38
2017-05-31T03:35:45.738Z,1032.38
2017-05-31T03:36:45.734Z,1032.42
2017-05-31T03:37:45.731Z,1032.34
2017-05-31T03:38:45.728Z,1032.36
2017-05-31T03:39:45.725Z,1032.36
2017-05-31T03:40:45.722Z,1032.44
2017-05-31T03:41:45.719Z,1032.44
2017-05-31T03:42:45.717Z,1032.41
2017-05-31T03:43:45.712Z,1032.37
2017-05-31T03:44:45.710Z,1032.37
2017-05-31T03:45:45.707Z,1032.41
2017-05-31T03:46:45.705Z,1032.38
2017-05-31T03:47:45.700Z,1032.35
2017-05-31T03:48:45.699Z,1032.38
2017-05-31T03:49:45.696Z,1032.37
2017-05-31T03:50:45.693Z,1032.36
2017-05-31T03:51:45.689Z,1032.37
2017-05-31T03:52:45.686Z,1032.36
2017-05-31T03:53:45.686Z,1032.41
2017-05-31T03:54:45.681Z,1032.41
2017-05-31T03:55:45.678Z,1032.42
2017-05-31T03:56:45.676Z,1032.47
2017-05-31T03:57:45.674Z,1032.39
2017-05-31T03:58:45.674Z,1032.42
2017-05-31T03:59:45.668Z,1032.38
2017-05-31T04:00:45.665Z,1032.27
2017-05-31T04:01:45.662Z,1032.09
2017-05-31T04:02:45.659Z,1031.98
2017-05-31T04:03:45.657Z,1031.71
2017-05-31T04:04:45.655Z,1031.71
2017-05-31T04:05:45.652Z,1031.74
2017-05-31T04:06:45.649Z,1031.71
2017-05-31T04:07:45.648Z,1031.64
2017-05-31T04:08:45.645Z,1031.69
2017-05-31T04:09:45.642Z,1031.63
2017-05-31T04:10:45.640Z,1031.47
2017-05-31T04:11:45.638Z,1031.5
2017-05-31T04:12:45.635Z,1031.52
2017-05-31T04:13:45.634Z,1031.58
2017-05-31T04:14:45.633Z,1031.69
2017-05-31T04:15:45.631Z,1031.73
2017-05-31T04:16:45.628Z,1031.74
2017-05-31T04:17:45.626Z,1031.68
2017-05-31T04:18:45.624Z,1031.54
2017-05-31T04:19:45.623Z,1031.53
2017-05-31T04:20:45.621Z,1031.57
2017-05-31T04:21:45.619Z,1031.71
2017-05-31T04:22:45.617Z,1031.76
2017-05-31T04:23:45.615Z,1031.62
2017-05-31T04:24:45.614Z,1031.48
2017-05-31T04:25:45.612Z,1031.2
2017-05-31T04:26:45.611Z,1031.11
2017-05-31T04:27:45.612Z,1031.04
2017-05-31T04:28:45.660Z,1031.03
2017-05-31T04:29:45.606Z,1031.04
2017-05-31T04:30:45.609Z,1031.02
2017-05-31T04:31:45.604Z,1031.01
2017-05-31T04:32:45.603Z,1031.1
2017-05-31T04:33:45.603Z,1031.11
2017-05-31T04:34:45.601Z,1031.15
2017-05-31T04:35:45.600Z,1031.18
2017-05-31T04:36:45.599Z,1031.19
2017-05-31T04:37:45.598Z,1031.15
2017-05-31T04:38:45.597Z,1031.19
2017-05-31T04:39:45.596Z,1031.18
2017-05-31T04:40:45.596Z,1031.27
2017-05-31T04:41:45.594Z,1031.39
2017-05-31T04:42:45.593Z,1031.34
2017-05-31T04:43:45.593Z,1031.34
2017-05-31T04:44:45.592Z,1031.34
2017-05-31T04:45:45.591Z,1031.29
2017-05-31T04:46:45.591Z,1031.28
2017-05-31T04:47:45.590Z,1031.27
2017-05-31T04:48:45.589Z,1031.22
2017-05-31T04:49:45.588Z,1031.2
2017-05-31T04:50:45.587Z,1031.21
2017-05-31T04:51:45.587Z,1031.24
2017-05-31T04:52:45.587Z,1031.25
2017-05-31T04:53:45.585Z,1031.2
2017-05-31T04:54:45.584Z,1031.18
2017-05-31T04:55:45.584Z,1031.22
2017-05-31T04:56:45.582Z,1031.14
2017-05-31T04:57:45.582Z,1031.22
2017-05-31T04:58:45.582Z,1031.22
2017-05-31T04:59:45.581Z,1031.26
2017-05-31T05:00:45.580Z,1031.28
2017-05-31T05:01:45.580Z,1031.36
2017-05-31T05:02:45.579Z,1031.29
2017-05-31T05:03:45.578Z,1031.36
2017-05-31T05:04:45.578Z,1031.41
2017-05-31T05:05:45.577Z,1031.48
2017-05-31T05:06:45.576Z,1031.48
2017-05-31T05:07:45.575Z,1031.51
2017-05-31T05:08:45.575Z,1031.53
2017-05-31T05:09:45.575Z,1031.56
2017-05-31T05:10:45.573Z,1031.53
2017-05-31T05:11:45.572Z,1031.52
2017-05-31T05:12:45.572Z,1031.5
2017-05-31T05:13:45.571Z,1031.49
2017-05-31T05:14:45.570Z,1031.45
2017-05-31T05:15:45.570Z,1031.33
2017-05-31T05:16:45.570Z,1031.32
2017-05-31T05:17:45.569Z,1031.33
2017-05-31T05:18:45.567Z,1031.27
2017-05-31T05:19:45.567Z,1031.21
2017-05-31T05:20:45.567Z,1031.17
2017-05-31T05:21:45.567Z,1031.15
2017-05-31T05:22:45.565Z,1031.06
2017-05-31T05:23:45.564Z,1031.06
2017-05-31T05:24:45.565Z,1031.05
2017-05-31T05:25:45.563Z,1031
2017-05-31T05:26:45.563Z,1031.04
2017-05-31T05:27:45.563Z,1031.02
2017-05-31T05:28:45.564Z,1031.04
2017-05-31T05:29:45.562Z,1031.06
2017-05-31T05:30:45.562Z,1031.12
2017-05-31T05:31:45.562Z,1031.15
2017-05-31T05:32:45.563Z,1031.23
2017-05-31T05:33:45.561Z,1031.21
2017-05-31T05:34:45.561Z,1031.26
2017-05-31T05:35:45.561Z,1031.32
2017-05-31T05:36:45.560Z,1031.32
2017-05-31T05:37:45.560Z,1031.43
2017-05-31T05:38:45.561Z,1031.36
2017-05-31T05:39:45.560Z,1031.4
2017-05-31T05:40:45.559Z,1031.31
2017-05-31T05:41:45.560Z,1031.27
2017-05-31T05:42:45.559Z,1031.19
2017-05-31T05:43:45.560Z,1031.18
2017-05-31T05:44:45.559Z,1031.21
2017-05-31T05:45:45.559Z,1031.21
2017-05-31T05:46:45.561Z,1031.24
2017-05-31T05:47:45.558Z,1031.4
2017-05-31T05:48:45.560Z,1031.35
2017-05-31T05:49:45.558Z,1031.33
2017-05-31T05:50:45.561Z,1031.2
2017-05-31T05:51:45.559Z,1030.87
2017-05-31T05:52:45.559Z,1030.84
2017-05-31T05:53:45.559Z,1030.68
2017-05-31T05:54:45.559Z,1030.51
2017-05-31T05:55:45.559Z,1030.46
2017-05-31T05:56:45.561Z,1030.02
2017-05-31T05:57:45.561Z,1030.1
2017-05-31T05:58:45.561Z,1030.4
2017-05-31T05:59:45.562Z,1030.47
2017-05-31T06:00:45.563Z,1030.67
2017-05-31T06:01:45.566Z,1030.62
2017-05-31T06:02:45.565Z,1030.69
2017-05-31T06:03:45.567Z,1030.7
2017-05-31T06:04:45.567Z,1030.66
2017-05-31T06:05:45.569Z,1030.55
2017-05-31T06:06:45.571Z,1029.95
2017-05-31T06:07:45.573Z,1030.29
2017-05-31T06:08:45.576Z,1029.39
2017-05-31T06:09:45.576Z,1028.98
2017-05-31T06:10:45.578Z,1028.41
2017-05-31T06:11:45.582Z,1027.64
2017-05-31T06:12:45.585Z,1027.67
2017-05-31T06:13:45.587Z,1028.07
2017-05-31T06:14:45.591Z,1027.95
2017-05-31T06:15:45.596Z,1027.25
2017-05-31T06:16:45.600Z,1027.45
2017-05-31T06:17:45.605Z,1026.72
2017-05-31T06:18:45.611Z,1027.06
2017-05-31T06:19:45.619Z,1026.69
2017-05-31T06:20:45.625Z,1026.55
2017-05-31T06:21:45.631Z,1026.26
2017-05-31T06:22:45.638Z,1026.46
2017-05-31T06:23:45.646Z,1026.37
2017-05-31T06:24:45.655Z,1026.35
2017-05-31T06:25:45.662Z,1026.22
2017-05-31T06:26:45.670Z,1026.11
2017-05-31T06:27:45.678Z,1025.94
2017-05-31T06:28:45.688Z,1025.87
2017-05-31T06:29:45.698Z,1025.74
2017-05-31T06:30:45.706Z,1025.65
2017-05-31T06:31:45.718Z,1025.88
2017-05-31T06:32:45.726Z,1025.44
2017-05-31T06:33:45.736Z,1026.11
2017-05-31T06:34:45.748Z,1025.36
2017-05-31T06:35:45.757Z,1026.15
2017-05-31T06:36:45.767Z,1025.28
2017-05-31T06:37:45.779Z,1026.32
2017-05-31T06:38:45.789Z,1026.13
2017-05-31T06:39:45.800Z,1026.67
2017-05-31T06:40:45.813Z,1026.38
2017-05-31T06:41:45.822Z,1025.46
2017-05-31T06:42:45.832Z,1025.58
2017-05-31T06:43:45.844Z,1025.85
2017-05-31T06:44:45.855Z,1025.65
2017-05-31T06:45:45.867Z,1026.2
2017-05-31T06:46:45.878Z,1025.84
2017-05-31T06:47:45.890Z,1026.26
2017-05-31T06:48:45.901Z,1026.77
2017-05-31T06:49:45.911Z,1026.65
2017-05-31T06:50:45.923Z,1026.99
2017-05-31T06:51:45.934Z,1027.4
2017-05-31T06:52:45.945Z,1027.19
2017-05-31T06:53:45.956Z,1026.9
2017-05-31T06:54:45.968Z,1027.24
2017-05-31T06:55:45.979Z,1026.92
2017-05-31T06:56:45.990Z,1027.19
2017-05-31T06:57:46.000Z,1027.48
2017-05-31T06:58:46.011Z,1027.78
2017-05-31T06:59:46.022Z,1027.35
2017-05-31T07:00:46.031Z,1027.29
2017-05-31T07:01:46.042Z,1027.69
2017-05-31T07:02:46.052Z,1028.09
2017-05-31T07:03:46.064Z,1028.47
2017-05-31T07:04:46.073Z,1028.34
2017-05-31T07:05:46.082Z,1028.05
2017-05-31T07:06:46.093Z,1027.69
2017-05-31T07:07:46.103Z,1027.29
2017-05-31T07:08:46.112Z,1027.04
2017-05-31T07:09:46.122Z,1026.53
2017-05-31T07:10:46.133Z,1027.01
2017-05-31T07:11:46.142Z,1026.51
2017-05-31T07:12:46.154Z,1026.56
2017-05-31T07:13:46.163Z,1027.21
2017-05-31T07:14:46.174Z,1027.29
2017-05-31T07:15:46.184Z,1028.36
2017-05-31T07:16:46.194Z,1028.51
2017-05-31T07:17:46.205Z,1027.83
2017-05-31T07:18:46.215Z,1027.33
2017-05-31T07:19:46.225Z,1026.96
2017-05-31T07:20:46.236Z,1027.55
2017-05-31T07:21:46.245Z,1027.28
2017-05-31T07:22:46.256Z,1026.82
2017-05-31T07:23:46.265Z,1027.37
2017-05-31T07:24:46.281Z,1026.95
2017-05-31T07:25:46.288Z,1026.44
2017-05-31T07:26:46.297Z,1026.85
2017-05-31T07:27:46.308Z,1026.84
2017-05-31T07:28:46.319Z,1025.74
2017-05-31T07:29:46.331Z,1026.44
2017-05-31T07:30:46.341Z,1026.76
2017-05-31T07:31:46.352Z,1025.98
2017-05-31T07:32:46.363Z,1026.86
2017-05-31T07:33:46.374Z,1026.84
2017-05-31T07:34:46.384Z,1026.53
2017-05-31T07:35:46.396Z,1026.21
2017-05-31T07:36:46.408Z,1026.02
2017-05-31T07:37:46.417Z,1025.92
2017-05-31T07:38:46.429Z,1025.83
2017-05-31T07:39:46.441Z,1025.69
2017-05-31T07:40:46.453Z,1025.6
2017-05-31T07:41:46.466Z,1024.73
2017-05-31T07:42:46.477Z,1025.84
2017-05-31T07:43:46.489Z,1026.54
2017-05-31T07:44:46.500Z,1027.05
2017-05-31T07:45:46.513Z,1027.69
2017-05-31T07:46:46.524Z,1028.1
2017-05-31T07:47:46.536Z,1028.51
2017-05-31T07:48:46.547Z,1028.56
2017-05-31T07:49:46.557Z,1027.44
2017-05-31T07:50:46.569Z,1027.93
2017-05-31T07:51:46.578Z,1027.39
2017-05-31T07:52:46.590Z,1028.08
2017-05-31T07:53:46.601Z,1028.85
2017-05-31T07:54:46.611Z,1029.42
2017-05-31T07:55:46.621Z,1029.73
2017-05-31T07:56:46.631Z,1030.07
2017-05-31T07:57:46.641Z,1029.79
2017-05-31T07:58:46.651Z,1029.86
2017-05-31T07:59:46.658Z,1030.24
2017-05-31T08:00:46.669Z,1030.5
2017-05-31T08:01:46.678Z,1030.73
2017-05-31T08:02:46.686Z,1031
2017-05-31T08:03:46.694Z,1031.18
2017-05-31T08:04:46.703Z,1031.34
2017-05-31T08:05:46.714Z,1031.48
2017-05-31T08:06:46.717Z,1031.62
2017-05-31T08:07:46.725Z,1031.88
2017-05-31T08:08:46.733Z,1031.97
2017-05-31T08:09:46.742Z,1032.01
2017-05-31T08:10:46.746Z,1032.1
2017-05-31T08:11:46.753Z,1032.05
2017-05-31T08:12:46.759Z,1032.16
2017-05-31T08:13:46.764Z,1032.38
2017-05-31T08:14:46.770Z,1032.46
2017-05-31T08:15:46.776Z,1032.68
2017-05-31T08:16:46.781Z,1032.52
2017-05-31T08:17:46.785Z,1032.48
2017-05-31T08:18:46.791Z,1032.09
2017-05-31T08:19:46.796Z,1030.78
2017-05-31T08:20:46.801Z,1029.91
2017-05-31T08:21:46.807Z,1029.16
2017-05-31T08:22:46.812Z,1028.44
2017-05-31T08:23:46.818Z,1027.58
2017-05-31T08:24:46.823Z,1027.64
2017-05-31T08:25:46.831Z,1027.84
2017-05-31T08:26:46.837Z,1027.84
2017-05-31T08:27:46.844Z,1027.7
2017-05-31T08:28:46.850Z,1027.71
2017-05-31T08:29:46.858Z,1028.36
2017-05-31T08:30:46.866Z,1029.13
2017-05-31T08:31:46.873Z,1029.51
2017-05-31T08:32:46.880Z,1029.91
2017-05-31T08:33:46.888Z,1030.25
2017-05-31T08:34:46.895Z,1030.53
2017-05-31T08:35:46.902Z,1030.74
2017-05-31T08:36:46.909Z,1030.91
2017-05-31T08:37:46.916Z,1031.29
2017-05-31T08:38:46.923Z,1031.45
2017-05-31T08:39:46.929Z,1031.58
2017-05-31T08:40:46.935Z,1031.66
2017-05-31T08:41:46.942Z,1030.09
2017-05-31T08:42:46.948Z,1028.94
2017-05-31T08:43:46.954Z,1028.59
2017-05-31T08:44:46.960Z,1028.07
2017-05-31T08:45:46.967Z,1027.53
2017-05-31T08:46:46.974Z,1027.08
2017-05-31T08:47:46.981Z,1026.66
2017-05-31T08:48:46.989Z,1026.29
2017-05-31T08:49:46.998Z,1026.16
2017-05-31T08:50:47.004Z,1026.44
2017-05-31T08:51:47.013Z,1026.9
2017-05-31T08:52:47.022Z,1027.48
2017-05-31T08:53:47.032Z,1028.11
2017-05-31T08:54:47.038Z,1028.57
2017-05-31T08:55:47.047Z,1029.13
2017-05-31T08:56:47.056Z,1029.69
2017-05-31T08:57:47.064Z,1030.04
2017-05-31T08:58:47.072Z,1030.28
2017-05-31T08:59:47.080Z,1030.57
2017-05-31T09:00:47.089Z,1030.79
2017-05-31T09:01:47.094Z,1030.96
2017-05-31T09:02:47.102Z,1031.23
2017-05-31T09:03:47.109Z,1031.36
2017-05-31T09:04:47.116Z,1031.54
2017-05-31T09:05:47.122Z,1031.67
2017-05-31T09:06:47.129Z,1031.87
2017-05-31T09:07:47.165Z,1031.85
2017-05-31T09:08:47.141Z,1031.85
2017-05-31T09:09:47.147Z,1031.82
2017-05-31T09:10:47.155Z,1031.73
2017-05-31T09:11:47.159Z,1031.6
2017-05-31T09:12:47.164Z,1031.54
2017-05-31T09:13:47.170Z,1031.39
2017-05-31T09:14:47.179Z,1031.37
2017-05-31T09:15:47.194Z,1031.36
2017-05-31T09:16:47.187Z,1031.42
2017-05-31T09:17:47.194Z,1031.58
2017-05-31T09:18:47.200Z,1031.75
2017-05-31T09:19:47.203Z,1031.77
2017-05-31T09:20:47.208Z,1031.85
2017-05-31T09:21:47.215Z,1031.94
2017-05-31T09:22:47.219Z,1031.9
2017-05-31T09:23:47.223Z,1031.95
2017-05-31T09:24:47.228Z,1031.84
2017-05-31T09:25:47.234Z,1031.84
2017-05-31T09:26:47.237Z,1032.09
2017-05-31T09:27:47.242Z,1032.27
2017-05-31T09:28:47.248Z,1032.32
2017-05-31T09:29:47.252Z,1032.12
2017-05-31T09:30:47.256Z,1031.88
2017-05-31T09:31:47.260Z,1031.8
2017-05-31T09:32:47.265Z,1031.77
2017-05-31T09:33:47.270Z,1031.83
2017-05-31T09:34:47.273Z,1031.83
2017-05-31T09:35:47.278Z,1031.95
2017-05-31T09:36:47.283Z,1031.96
2017-05-31T09:37:47.287Z,1031.94
2017-05-31T09:38:47.291Z,1031.95
2017-05-31T09:39:47.296Z,1031.9
2017-05-31T09:40:47.301Z,1031.9
2017-05-31T09:41:47.304Z,1031.74
2017-05-31T09:42:47.309Z,1031.77
2017-05-31T09:43:47.314Z,1031.76
2017-05-31T09:44:47.317Z,1031.7
2017-05-31T09:45:47.322Z,1031.75
2017-05-31T09:46:47.326Z,1031.72
2017-05-31T09:47:47.331Z,1031.77
2017-05-31T09:48:47.335Z,1031.74
2017-05-31T09:49:47.340Z,1031.71
2017-05-31T09:50:47.344Z,1031.68
2017-05-31T09:51:47.349Z,1031.58
2017-05-31T09:52:47.352Z,1031.51
2017-05-31T09:53:47.357Z,1031.72
2017-05-31T09:54:47.362Z,1031.77
2017-05-31T09:55:47.365Z,1031.82
2017-05-31T09:56:47.371Z,1031.92
2017-05-31T09:57:47.375Z,1031.93
2017-05-31T09:58:47.384Z,1032.03
2017-05-31T09:59:47.383Z,1032.01
2017-05-31T10:00:47.388Z,1032.07
2017-05-31T10:01:47.392Z,1032.12
2017-05-31T10:02:47.397Z,1032.1
2017-05-31T10:03:47.401Z,1032.1
2017-05-31T10:04:47.406Z,1031.92
2017-05-31T10:05:47.411Z,1031.69
2017-05-31T10:06:47.415Z,1031.47
2017-05-31T10:07:47.420Z,1031.22
2017-05-31T10:08:47.424Z,1031.15
2017-05-31T10:09:47.429Z,1031.22
2017-05-31T10:10:47.433Z,1031.36
2017-05-31T10:11:47.438Z,1031.31
2017-05-31T10:12:47.443Z,1031.21
2017-05-31T10:13:47.448Z,1031.25
2017-05-31T10:14:47.453Z,1031.27
2017-05-31T10:15:47.457Z,1031.37
2017-05-31T10:16:47.463Z,1031.46
2017-05-31T10:17:47.468Z,1031.62
2017-05-31T10:18:47.472Z,1031.71
2017-05-31T10:19:47.477Z,1031.71
2017-05-31T10:20:47.482Z,1031.82
2017-05-31T10:21:47.486Z,1031.94
2017-05-31T10:22:47.492Z,1031.98
2017-05-31T10:23:47.496Z,1032.03
2017-05-31T10:24:47.502Z,1032.11
2017-05-31T10:25:47.505Z,1032.16
2017-05-31T10:26:47.509Z,1032.11
2017-05-31T10:27:47.513Z,1032.11
2017-05-31T10:28:47.520Z,1032.03
2017-05-31T10:29:47.522Z,1032.02
2017-05-31T10:30:47.527Z,1032.12
2017-05-31T10:31:47.532Z,1032.29
2017-05-31T10:32:47.536Z,1032.46
2017-05-31T10:33:47.540Z,1032.56
2017-05-31T10:34:47.544Z,1032.62
2017-05-31T10:35:47.547Z,1032.61
2017-05-31T10:36:47.552Z,1032.64
2017-05-31T10:37:47.555Z,1032.67
2017-05-31T10:38:47.559Z,1032.66
2017-05-31T10:39:47.563Z,1032.52
2017-05-31T10:40:47.580Z,1032.3
2017-05-31T10:41:47.570Z,1032.27
2017-05-31T10:42:47.573Z,1032.16
2017-05-31T10:43:47.577Z,1032.27
2017-05-31T10:44:47.581Z,1032.3
2017-05-31T10:45:47.584Z,1032.22
2017-05-31T10:46:47.590Z,1032.25
2017-05-31T10:47:47.591Z,1032.04
2017-05-31T10:48:47.595Z,1031.83
2017-05-31T10:49:47.599Z,1031.68
2017-05-31T10:50:47.603Z,1031.54
2017-05-31T10:51:47.607Z,1031.47
2017-05-31T10:52:47.611Z,1031.57
2017-05-31T10:53:47.615Z,1031.74
2017-05-31T10:54:47.618Z,1031.7
2017-05-31T10:55:47.623Z,1031.58
2017-05-31T10:56:47.628Z,1031.6
2017-05-31T10:57:47.631Z,1031.57
2017-05-31T10:58:47.634Z,1031.63
2017-05-31T10:59:47.639Z,1031.63
2017-05-31T11:00:47.645Z,1031.65
2017-05-31T11:01:47.647Z,1031.61
2017-05-31T11:02:47.651Z,1031.65
2017-05-31T11:03:47.655Z,1031.89
2017-05-31T11:04:47.660Z,1032.02
2017-05-31T11:05:47.663Z,1032.29
2017-05-31T11:06:47.668Z,1032.24
2017-05-31T11:07:47.672Z,1032.26
2017-05-31T11:08:47.675Z,1032.33
2017-05-31T11:09:47.679Z,1032.19
2017-05-31T11:10:47.684Z,1032.3
2017-05-31T11:11:47.686Z,1032.36
2017-05-31T11:12:47.690Z,1032.37
2017-05-31T11:13:47.694Z,1032.44
2017-05-31T11:14:47.698Z,1032.5
2017-05-31T11:15:47.703Z,1032.61
2017-05-31T11:16:47.705Z,1032.59
2017-05-31T11:17:47.710Z,1032.53
2017-05-31T11:18:47.713Z,1032.53
2017-05-31T11:19:47.716Z,1032.36
2017-05-31T11:20:47.718Z,1032.46
2017-05-31T11:21:47.723Z,1032.42
2017-05-31T11:22:47.727Z,1032.51
2017-05-31T11:23:47.729Z,1032.45
2017-05-31T11:24:47.733Z,1032.32
2017-05-31T11:25:47.737Z,1032.34
2017-05-31T11:26:47.740Z,1032.1
2017-05-31T11:27:47.743Z,1032.08
2017-05-31T11:28:47.746Z,1032.14
2017-05-31T11:29:47.749Z,1032.22
2017-05-31T11:30:47.753Z,1032.09
2017-05-31T11:31:47.755Z,1031.96
2017-05-31T11:32:47.759Z,1031.98
2017-05-31T11:33:47.764Z,1032.16
2017-05-31T11:34:47.766Z,1032.03
2017-05-31T11:35:47.770Z,1031.99
2017-05-31T11:36:47.774Z,1032.03
2017-05-31T11:37:47.777Z,1031.86
2017-05-31T11:38:47.781Z,1031.88
2017-05-31T11:39:47.785Z,1031.8
2017-05-31T11:40:47.789Z,1031.81
2017-05-31T11:41:47.793Z,1031.74
2017-05-31T11:42:47.795Z,1031.66
2017-05-31T11:43:47.799Z,1031.67
2017-05-31T11:44:47.802Z,1031.82
2017-05-31T11:45:47.806Z,1031.68
2017-05-31T11:46:47.809Z,1031.92
2017-05-31T11:47:47.814Z,1031.74
2017-05-31T11:48:47.818Z,1031.7
2017-05-31T11:49:47.821Z,1031.85
2017-05-31T11:50:47.825Z,1031.91
2017-05-31T11:51:47.828Z,1031.84
2017-05-31T11:52:47.833Z,1031.84
2017-05-31T11:53:47.836Z,1031.86
2017-05-31T11:54:47.840Z,1031.81
2017-05-31T11:55:47.895Z,1031.89
2017-05-31T11:56:47.847Z,1031.86
2017-05-31T11:57:47.851Z,1031.78
2017-05-31T11:58:47.855Z,1031.89
2017-05-31T11:59:47.860Z,1031.79
2017-05-31T12:00:47.862Z,1032.04
2017-05-31T12:01:47.866Z,1032.06
2017-05-31T12:02:47.869Z,1032.05
2017-05-31T12:03:47.874Z,1032.01
2017-05-31T12:04:47.876Z,1032.28
2017-05-31T12:05:47.880Z,1032.21
2017-05-31T12:06:47.884Z,1032.03
2017-05-31T12:07:47.886Z,1031.97
2017-05-31T12:08:47.891Z,1031.74